createdAt,value
2019-06-08T00:01:44.362Z,100706.91
2019-06-08T00:04:14.490Z,100715.05
2019-06-08T00:06:44.604Z,100727.14
2019-06-08T00:09:14.757Z,100716.67
2019-06-08T00:11:44.837Z,100724.14
2019-06-08T00:14:15.188Z,100719.03
2019-06-08T00:16:45.238Z,100716.35
2019-06-08T00:19:15.364Z,100723.52
2019-06-08T00:21:45.415Z,100718.87
2019-06-08T00:24:15.785Z,100736.28
2019-06-08T00:26:45.845Z,100731.14
2019-06-08T00:29:16.248Z,100739.80
2019-06-08T00:31:46.416Z,100726.05
2019-06-08T00:34:16.611Z,100720.61
2019-06-08T00:36:46.875Z,100718.97
2019-06-08T00:39:16.980Z,100739.22
2019-06-08T00:41:47.047Z,100722.22
2019-06-08T00:44:49.502Z,100716.92
2019-06-08T00:47:20.522Z,100718.37
2019-06-08T00:49:50.668Z,100721.15
2019-06-08T00:52:21.094Z,100729.52
2019-06-08T00:54:51.223Z,100724.41
2019-06-08T00:57:21.784Z,100734.98
2019-06-08T00:59:51.985Z,100747.66
2019-06-08T01:02:22.544Z,100753.49
2019-06-08T01:04:52.792Z,100745.20
2019-06-08T01:07:24.055Z,100733.73
2019-06-08T01:09:54.142Z,100716.27
2019-06-08T01:12:24.618Z,100690.92
2019-06-08T01:14:54.779Z,100709.62
2019-06-08T01:17:25.147Z,100718.31
2019-06-08T01:19:55.205Z,100711.75
2019-06-08T01:22:25.588Z,100711.75
2019-06-08T01:24:55.618Z,100723.42
2019-06-08T01:27:26.096Z,100723.16
2019-06-08T01:29:56.250Z,100727.00
2019-06-08T01:32:26.453Z,100727.34
2019-06-08T01:34:56.461Z,100734.19
2019-06-08T01:37:27.027Z,100731.77
2019-06-08T01:39:57.196Z,100710.80
2019-06-08T01:42:27.724Z,100702.91
2019-06-08T01:44:57.801Z,100704.84
2019-06-08T01:47:28.340Z,100686.09
2019-06-08T01:49:58.518Z,100648.42
2019-06-08T01:52:28.898Z,100605.69
2019-06-08T01:54:59.080Z,100645.05
2019-06-08T01:57:29.369Z,100686.38
2019-06-08T01:59:59.498Z,100713.19
2019-06-08T02:02:29.960Z,100713.70
2019-06-08T02:05:00.512Z,100741.67
2019-06-08T02:07:30.586Z,100698.69
2019-06-08T02:10:00.675Z,100711.95
2019-06-08T02:12:31.179Z,100707.82
2019-06-08T02:15:01.349Z,100684.98
2019-06-08T02:17:31.434Z,100669.22
2019-06-08T02:20:01.528Z,100649.40
2019-06-08T02:22:32.964Z,100692.72
2019-06-08T02:25:03.071Z,100718.84
2019-06-08T02:27:33.550Z,100738.84
2019-06-08T02:30:03.910Z,100738.25
2019-06-08T02:32:35.603Z,100738.51
2019-06-08T02:35:06.996Z,100736.89
2019-06-08T02:37:38.310Z,100744.06
2019-06-08T02:40:09.656Z,100734.23
2019-06-08T02:42:40.289Z,100742.73
2019-06-08T02:45:11.406Z,100746.93
2019-06-08T02:47:41.897Z,100758.35
2019-06-08T02:50:12.769Z,100753.30
2019-06-08T02:52:44.355Z,100754.14
2019-06-08T02:55:14.530Z,100756.39
2019-06-08T02:57:46.128Z,100764.41
2019-06-08T03:00:16.583Z,100756.19
2019-06-08T03:02:47.770Z,100750.48
2019-06-08T03:05:17.880Z,100751.81
2019-06-08T03:07:50.878Z,100755.78
2019-06-08T03:10:20.965Z,100757.52
2019-06-08T03:12:53.355Z,100754.05
2019-06-08T03:15:46.454Z,100762.41
2019-06-08T03:18:16.533Z,100763.44
2019-06-08T03:20:46.607Z,100769.95
2019-06-08T03:23:16.714Z,100762.63
2019-06-08T03:25:52.936Z,100759.97
2019-06-08T03:28:18.613Z,100759.36
2019-06-08T03:30:54.429Z,100746.10
2019-06-08T03:33:20.493Z,100725.41
2019-06-08T03:35:56.813Z,100735.36
2019-06-08T03:38:22.381Z,100731.52
2019-06-08T03:40:52.469Z,100744.53
2019-06-08T03:43:22.553Z,100738.72
2019-06-08T03:45:52.628Z,100728.95
2019-06-08T03:48:22.722Z,100729.50
2019-06-08T03:50:52.812Z,100759.99
2019-06-08T03:53:22.921Z,100736.69
2019-06-08T03:55:53.007Z,100745.45
2019-06-08T03:58:23.106Z,100737.95
2019-06-08T04:00:53.228Z,100737.95
2019-06-08T04:03:23.338Z,100729.89
2019-06-08T04:05:53.399Z,100731.55
2019-06-08T04:09:11.331Z,100729.08
2019-06-08T04:11:39.935Z,100734.38
2019-06-08T04:14:10.110Z,100745.66
2019-06-08T04:16:42.359Z,100742.19
2019-06-08T04:19:12.130Z,100750.11
2019-06-08T04:21:42.248Z,100757.88
2019-06-08T04:24:12.347Z,100752.69
2019-06-08T04:26:43.398Z,100750.95
2019-06-08T04:29:14.252Z,100741.42
2019-06-08T04:31:45.943Z,100741.34
2019-06-08T04:34:16.121Z,100740.17
2019-06-08T04:36:48.071Z,100741.27
2019-06-08T04:39:18.105Z,100753.34
2019-06-08T04:41:50.938Z,100763.58
2019-06-08T04:44:21.135Z,100775.36
2019-06-08T04:46:51.196Z,100778.73
2019-06-08T04:49:21.284Z,100781.75
2019-06-08T04:51:51.360Z,100791.58
2019-06-08T04:54:21.455Z,100805.44
2019-06-08T04:56:51.565Z,100818.88
2019-06-08T04:59:21.642Z,100809.66
2019-06-08T05:01:51.725Z,100821.45
2019-06-08T05:04:21.838Z,100834.07
2019-06-08T05:06:51.887Z,100839.98
2019-06-08T05:09:21.992Z,100829.27
2019-06-08T05:11:52.540Z,100826.87
2019-06-08T05:14:22.610Z,100824.50
2019-06-08T05:16:52.678Z,100835.13
2019-06-08T05:19:23.376Z,100829.92
2019-06-08T05:21:53.479Z,100824.67
2019-06-08T05:24:23.594Z,100809.47
2019-06-08T05:26:53.694Z,100808.61
2019-06-08T05:29:23.745Z,100810.29
2019-06-08T05:31:53.824Z,100817.06
2019-06-08T05:34:23.913Z,100833.80
2019-06-08T05:36:54.209Z,100847.70
2019-06-08T05:39:24.267Z,100851.69
2019-06-08T05:41:54.376Z,100858.28
2019-06-08T05:44:24.445Z,100857.85
2019-06-08T05:46:54.543Z,100862.12
2019-06-08T05:49:24.644Z,100853.53
2019-06-08T05:51:54.730Z,100863.45
2019-06-08T05:54:24.820Z,100854.59
2019-06-08T05:56:54.929Z,100848.84
2019-06-08T05:59:24.994Z,100837.41
2019-06-08T06:01:55.086Z,100823.77
2019-06-08T06:04:25.168Z,100835.29
2019-06-08T06:06:55.482Z,100837.50
2019-06-08T06:09:25.566Z,100854.38
2019-06-08T06:11:55.662Z,100868.25
2019-06-08T06:14:26.126Z,100866.52
2019-06-08T06:16:56.308Z,100871.14
2019-06-08T06:19:27.241Z,100867.36
2019-06-08T06:21:57.357Z,100864.87
2019-06-08T06:24:27.456Z,100877.91
2019-06-08T06:26:57.570Z,100871.73
2019-06-08T06:29:27.809Z,100901.75
2019-06-08T06:31:57.941Z,100893.73
2019-06-08T06:34:28.063Z,100903.18
2019-06-08T06:36:58.273Z,100886.66
2019-06-08T06:39:28.333Z,100891.27
2019-06-08T06:41:58.441Z,100901.69
2019-06-08T06:44:28.537Z,100899.02
2019-06-08T06:46:58.650Z,100891.34
2019-06-08T06:49:28.727Z,100888.99
2019-06-08T06:51:59.177Z,100895.53
2019-06-08T06:54:29.323Z,100898.11
2019-06-08T06:56:59.427Z,100897.38
2019-06-08T06:59:29.505Z,100899.97
2019-06-08T07:01:59.732Z,100898.23
2019-06-08T07:04:29.944Z,100908.22
2019-06-08T07:07:00.798Z,100897.95
2019-06-08T07:09:30.970Z,100899.70
2019-06-08T07:12:01.251Z,100918.27
2019-06-08T07:14:32.059Z,100930.17
2019-06-08T07:17:02.855Z,100917.69
2019-06-08T07:19:33.291Z,100915.27
2019-06-08T07:22:03.627Z,100923.22
2019-06-08T07:24:34.381Z,100927.41
2019-06-08T07:27:07.361Z,100923.10
2019-06-08T07:29:36.559Z,100924.64
2019-06-08T07:32:06.821Z,100924.08
2019-06-08T07:34:37.121Z,100935.75
2019-06-08T07:37:07.525Z,100926.94
2019-06-08T07:39:38.382Z,100933.80
2019-06-08T07:42:08.809Z,100938.30
2019-06-08T07:44:39.223Z,100941.47
2019-06-08T07:47:09.449Z,100933.23
2019-06-08T07:49:40.537Z,100935.54
2019-06-08T07:52:11.105Z,100933.19
2019-06-08T07:54:42.061Z,100942.27
2019-06-08T07:57:12.250Z,100938.45
2019-06-08T07:59:42.378Z,100949.03
2019-06-08T08:02:12.629Z,100944.04
2019-06-08T08:04:42.995Z,100945.73
2019-06-08T08:07:13.252Z,100958.86
2019-06-08T08:09:43.489Z,100962.82
2019-06-08T08:12:13.584Z,100967.28
2019-06-08T08:14:43.693Z,100968.53
2019-06-08T08:17:13.800Z,100969.78
2019-06-08T08:19:43.983Z,100962.17
2019-06-08T08:22:22.989Z,100962.98
2019-06-08T08:24:50.389Z,100975.05
2019-06-08T08:27:18.076Z,100975.48
2019-06-08T08:29:51.716Z,100958.97
2019-06-08T08:32:21.922Z,100967.58
2019-06-08T08:34:52.237Z,100968.45
2019-06-08T08:37:22.682Z,100989.55
2019-06-08T08:39:53.535Z,100981.39
2019-06-08T08:42:23.859Z,100965.45
2019-06-08T08:44:54.220Z,100973.53
2019-06-08T08:47:24.403Z,100984.09
2019-06-08T08:49:54.525Z,100978.91
2019-06-08T08:52:34.490Z,100977.58
2019-06-08T08:54:59.132Z,100964.52
2019-06-08T08:57:28.943Z,100981.16
2019-06-08T09:00:04.334Z,100980.13
2019-06-08T09:02:31.190Z,100984.45
2019-06-08T09:05:03.342Z,100994.39
2019-06-08T09:07:33.221Z,101000.45
2019-06-08T09:10:04.057Z,100999.16
2019-06-08T09:12:37.063Z,101010.25
2019-06-08T09:15:08.606Z,101013.94
2019-06-08T09:17:38.926Z,101021.37
2019-06-08T09:20:15.452Z,101017.33
2019-06-08T09:22:52.523Z,101040.81
2019-06-08T09:25:13.703Z,101036.15
2019-06-08T09:27:43.997Z,101039.05
2019-06-08T09:30:14.065Z,101042.86
2019-06-08T09:32:44.259Z,101045.47
2019-06-08T09:35:15.217Z,101054.56
2019-06-08T09:37:48.404Z,101058.83
2019-06-08T09:40:17.859Z,101055.41
2019-06-08T09:42:50.843Z,101056.30
2019-06-08T09:45:20.504Z,101068.09
2019-06-08T09:47:50.953Z,101067.95
2019-06-08T09:50:21.397Z,101075.69
2019-06-08T09:53:06.512Z,101081.52
2019-06-08T09:55:24.322Z,101075.55
2019-06-08T09:57:59.005Z,101077.92
2019-06-08T10:00:29.148Z,101082.19
2019-06-08T10:03:12.630Z,101079.94
2019-06-08T10:05:42.874Z,101087.03
2019-06-08T10:08:13.001Z,101090.49
2019-06-08T10:10:43.125Z,101083.75
2019-06-08T10:13:13.366Z,101077.40
2019-06-08T10:15:43.519Z,101084.64
2019-06-08T10:18:13.693Z,101090.71
2019-06-08T10:20:43.781Z,101097.94
2019-06-08T10:23:30.302Z,101097.67
2019-06-08T10:25:47.979Z,101108.91
2019-06-08T10:28:21.438Z,101106.26
2019-06-08T10:30:49.583Z,101112.41
2019-06-08T10:33:19.777Z,101110.02
2019-06-08T10:35:49.861Z,101109.81
2019-06-08T10:38:20.167Z,101114.14
2019-06-08T10:41:12.868Z,101121.15
2019-06-08T10:43:35.272Z,101118.35
2019-06-08T10:46:14.030Z,101129.44
2019-06-08T10:48:38.039Z,101127.66
2019-06-08T10:51:11.238Z,101132.64
2019-06-08T10:53:49.226Z,101143.02
2019-06-08T10:56:12.596Z,101139.81
2019-06-08T10:58:42.922Z,101136.86
2019-06-08T11:01:13.606Z,101135.53
2019-06-08T11:03:43.925Z,101139.05
2019-06-08T11:06:14.041Z,101144.73
2019-06-08T11:08:44.122Z,101153.82
2019-06-08T11:11:14.237Z,101155.00
2019-06-08T11:13:44.306Z,101162.22
2019-06-08T11:16:14.427Z,101161.34
2019-06-08T11:18:44.454Z,101132.73
2019-06-08T11:21:14.544Z,101164.86
2019-06-08T11:23:44.637Z,101161.45
2019-06-08T11:26:22.636Z,101179.41
2019-06-08T11:28:48.274Z,101178.88
2019-06-08T11:31:19.854Z,101189.48
2019-06-08T11:33:50.141Z,101159.09
2019-06-08T11:36:20.335Z,101183.55
2019-06-08T11:38:52.139Z,101176.19
2019-06-08T11:41:22.929Z,101191.99
2019-06-08T11:43:53.295Z,101189.77
2019-06-08T11:46:24.074Z,101198.02
2019-06-08T11:48:54.179Z,101195.11
2019-06-08T11:51:24.307Z,101189.81
2019-06-08T11:53:54.413Z,101191.73
2019-06-08T11:56:25.125Z,101192.05
2019-06-08T11:58:57.932Z,101200.46
2019-06-08T12:01:28.043Z,101196.70
2019-06-08T12:04:01.569Z,101206.89
2019-06-08T12:06:31.859Z,101212.13
2019-06-08T12:09:02.680Z,101219.22
2019-06-08T12:11:32.905Z,101212.53
2019-06-08T12:14:03.056Z,101213.96
2019-06-08T12:16:33.937Z,101227.84
2019-06-08T12:19:06.780Z,101220.06
2019-06-08T12:21:37.489Z,101232.26
2019-06-08T12:24:08.447Z,101228.55
2019-06-08T12:26:38.986Z,101224.00
2019-06-08T12:29:12.879Z,101234.47
2019-06-08T12:31:41.512Z,101234.38
2019-06-08T12:34:11.662Z,101231.35
2019-06-08T12:36:41.751Z,101236.11
2019-06-08T12:39:12.068Z,101230.59
2019-06-08T12:41:42.152Z,101214.03
2019-06-08T12:44:14.997Z,101211.14
2019-06-08T12:46:44.138Z,101217.18
2019-06-08T12:49:14.697Z,101228.60
2019-06-08T12:51:45.857Z,101210.22
2019-06-08T12:54:18.465Z,101214.32
2019-06-08T12:56:48.057Z,101209.10
2019-06-08T12:59:21.503Z,101211.30
2019-06-08T13:01:50.104Z,101212.91
2019-06-08T13:04:23.506Z,101223.50
2019-06-08T13:06:52.080Z,101202.44
2019-06-08T13:09:22.318Z,101217.63
2019-06-08T13:11:52.524Z,101218.62
2019-06-08T13:14:22.617Z,101211.98
2019-06-08T13:16:53.371Z,101213.45
2019-06-08T13:19:23.506Z,101226.48
2019-06-08T13:21:53.580Z,101219.44
2019-06-08T13:24:23.695Z,101222.35
2019-06-08T13:26:54.111Z,101222.52
2019-06-08T13:29:24.747Z,101230.22
2019-06-08T13:31:54.862Z,101240.20
2019-06-08T13:34:25.424Z,101226.05
2019-06-08T13:36:55.555Z,101224.73
2019-06-08T13:39:27.879Z,101229.77
2019-06-08T13:41:58.107Z,101234.72
2019-06-08T13:44:28.179Z,101222.15
2019-06-08T13:46:58.397Z,101234.03
2019-06-08T13:49:30.652Z,101225.91
2019-06-08T13:52:00.893Z,101241.09
2019-06-08T13:54:31.427Z,101244.27
2019-06-08T13:57:01.597Z,101246.30
2019-06-08T13:59:31.714Z,101252.22
2019-06-08T14:02:02.537Z,101249.14
2019-06-08T14:04:32.818Z,101260.17
2019-06-08T14:07:03.792Z,101260.13
2019-06-08T14:09:34.036Z,101256.73
2019-06-08T14:12:04.205Z,101256.66
2019-06-08T14:14:34.291Z,101265.89
2019-06-08T14:17:04.436Z,101255.86
2019-06-08T14:19:34.543Z,101265.73
2019-06-08T14:22:04.638Z,101257.86
2019-06-08T14:24:34.948Z,101258.50
2019-06-08T14:27:08.062Z,101265.70
2019-06-08T14:29:37.580Z,101263.34
2019-06-08T14:32:08.029Z,101258.29
2019-06-08T14:34:38.856Z,101261.47
2019-06-08T14:37:09.170Z,101264.95
2019-06-08T14:39:39.519Z,101261.72
2019-06-08T14:42:09.650Z,101269.44
2019-06-08T14:44:39.760Z,101276.33
2019-06-08T14:47:15.896Z,101275.07
2019-06-08T14:49:48.743Z,101270.47
2019-06-08T14:52:20.672Z,101277.50
2019-06-08T14:54:51.238Z,101278.11
2019-06-08T14:57:21.588Z,101267.27
2019-06-08T14:59:51.780Z,101267.00
2019-06-08T15:02:21.934Z,101275.93
2019-06-08T15:04:52.172Z,101265.29
2019-06-08T15:07:24.615Z,101270.95
2019-06-08T15:09:55.091Z,101281.27
2019-06-08T15:12:25.582Z,101254.37
2019-06-08T15:14:58.029Z,101252.89
2019-06-08T15:17:30.290Z,101262.38
2019-06-08T15:20:00.108Z,101262.86
2019-06-08T15:22:31.718Z,101263.45
2019-06-08T15:25:02.241Z,101265.84
2019-06-08T15:27:33.381Z,101268.67
2019-06-08T15:30:03.870Z,101276.45
2019-06-08T15:32:35.732Z,101269.67
2019-06-08T15:35:08.130Z,101274.12
2019-06-08T15:37:40.869Z,101267.98
2019-06-08T15:40:10.345Z,101276.46
2019-06-08T15:42:40.481Z,101272.02
2019-06-08T15:45:11.233Z,101282.92
2019-06-08T15:47:41.516Z,101287.30
2019-06-08T15:50:12.324Z,101291.03
2019-06-08T15:52:42.786Z,101294.42
2019-06-08T15:55:12.915Z,101303.80
2019-06-08T15:57:43.010Z,101307.69
2019-06-08T16:00:13.626Z,101306.70
2019-06-08T16:02:43.781Z,101305.09
2019-06-08T16:05:14.012Z,101307.19
2019-06-08T16:07:44.189Z,101301.55
2019-06-08T16:10:15.136Z,101308.20
2019-06-08T16:12:45.278Z,101314.84
2019-06-08T16:15:15.613Z,101310.51
2019-06-08T16:17:45.802Z,101310.24
2019-06-08T16:20:16.066Z,101314.99
2019-06-08T16:22:46.332Z,101318.60
2019-06-08T16:25:16.718Z,101313.57
2019-06-08T16:27:49.856Z,101316.87
2019-06-08T16:30:20.203Z,101304.65
2019-06-08T16:32:50.716Z,101311.59
2019-06-08T16:35:21.020Z,101315.05
2019-06-08T16:37:51.121Z,101307.97
2019-06-08T16:40:21.238Z,101317.26
2019-06-08T16:42:51.533Z,101325.22
2019-06-08T16:45:21.796Z,101328.61
2019-06-08T16:47:51.898Z,101323.91
2019-06-08T16:50:24.727Z,101324.30
2019-06-08T16:52:54.777Z,101322.12
2019-06-08T16:55:25.185Z,101330.86
2019-06-08T16:57:55.797Z,101339.97
2019-06-08T17:00:31.150Z,101353.57
2019-06-08T17:02:58.215Z,101373.86
2019-06-08T17:05:28.903Z,101360.66
2019-06-08T17:07:59.306Z,101361.73
2019-06-08T17:10:30.490Z,101355.12
2019-06-08T17:13:00.630Z,101346.55
2019-06-08T17:15:31.937Z,101351.71
2019-06-08T17:18:02.350Z,101348.14
2019-06-08T17:20:34.073Z,101353.38
2019-06-08T17:23:04.275Z,101356.69
2019-06-08T17:25:34.552Z,101351.92
2019-06-08T17:28:04.632Z,101359.47
2019-06-08T17:30:35.783Z,101355.05
2019-06-08T17:33:07.136Z,101360.36
2019-06-08T17:35:37.625Z,101363.11
2019-06-08T17:38:07.902Z,101360.31
2019-06-08T17:40:38.367Z,101357.09
2019-06-08T17:43:08.517Z,101364.80
2019-06-08T17:45:38.720Z,101360.77
2019-06-08T17:48:08.923Z,101368.95
2019-06-08T17:50:39.074Z,101369.20
2019-06-08T17:53:09.674Z,101362.55
2019-06-08T17:55:41.732Z,101369.73
2019-06-08T17:58:12.061Z,101369.35
2019-06-08T18:00:43.780Z,101375.27
2019-06-08T18:03:14.098Z,101384.15
2019-06-08T18:05:45.849Z,101396.00
2019-06-08T18:08:17.551Z,101374.91
2019-06-08T18:10:49.022Z,101364.64
2019-06-08T18:13:20.131Z,101358.39
2019-06-08T18:15:51.245Z,101368.08
2019-06-08T18:18:22.179Z,101366.20
2019-06-08T18:20:53.181Z,101366.09
2019-06-08T18:23:24.576Z,101377.26
2019-06-08T18:25:55.394Z,101368.82
2019-06-08T18:28:28.116Z,101375.26
2019-06-08T18:30:59.510Z,101398.89
2019-06-08T18:33:30.234Z,101408.98
2019-06-08T18:36:00.496Z,101405.41
2019-06-08T18:38:31.501Z,101386.09
2019-06-08T18:41:02.924Z,101378.94
2019-06-08T18:43:33.515Z,101396.80
2019-06-08T18:46:06.987Z,101401.87
2019-06-08T18:48:39.764Z,101404.76
2019-06-08T18:51:09.616Z,101386.81
2019-06-08T18:53:55.787Z,101397.81
2019-06-08T18:56:11.797Z,101400.22
2019-06-08T18:58:42.212Z,101404.03
2019-06-08T19:01:12.434Z,101418.84
2019-06-08T19:03:46.033Z,101413.23
2019-06-08T19:06:15.175Z,101416.61
2019-06-08T19:08:49.204Z,101429.27
2019-06-08T19:11:19.281Z,101434.46
2019-06-08T19:13:52.184Z,101444.91
2019-06-08T19:16:22.741Z,101448.77
2019-06-08T19:18:53.444Z,101456.59
2019-06-08T19:21:24.447Z,101465.95
2019-06-08T19:23:54.783Z,101470.02
2019-06-08T19:26:28.006Z,101471.92
2019-06-08T19:28:58.228Z,101480.02
2019-06-08T19:31:29.792Z,101473.57
2019-06-08T19:34:00.752Z,101472.55
2019-06-08T19:36:32.311Z,101467.02
2019-06-08T19:39:03.827Z,101467.64
2019-06-08T19:41:34.120Z,101454.07
2019-06-08T19:44:07.411Z,101451.61
2019-06-08T19:46:38.226Z,101448.39
2019-06-08T19:49:08.556Z,101448.03
2019-06-08T19:51:40.276Z,101461.94
2019-06-08T19:54:12.850Z,101463.00
2019-06-08T19:56:45.149Z,101466.47
2019-06-08T19:59:18.284Z,101462.15
2019-06-08T20:01:56.333Z,101463.55
2019-06-08T20:04:27.568Z,101468.95
2019-06-08T20:07:00.611Z,101472.59
2019-06-08T20:09:32.099Z,101478.02
2019-06-08T20:12:03.527Z,101475.73
2019-06-08T20:14:37.278Z,101474.45
2019-06-08T20:17:08.218Z,101474.33
2019-06-08T20:19:40.658Z,101476.91
2019-06-08T20:22:12.243Z,101485.03
2019-06-08T20:24:44.078Z,101477.86
2019-06-08T20:27:17.226Z,101480.22
2019-06-08T20:29:50.750Z,101475.09
2019-06-08T20:32:20.729Z,101480.66
2019-06-08T20:35:10.774Z,101482.54
2019-06-08T20:37:43.557Z,101489.39
2019-06-08T20:40:14.996Z,101494.64
2019-06-08T20:42:49.058Z,101496.04
2019-06-08T20:45:19.169Z,101500.19
2019-06-08T20:47:51.980Z,101503.14
2019-06-08T20:50:22.992Z,101503.77
2019-06-08T20:52:53.876Z,101511.06
2019-06-08T20:55:24.349Z,101517.01
2019-06-08T20:57:57.481Z,101515.14
2019-06-08T21:00:27.683Z,101512.97
2019-06-08T21:03:02.788Z,101519.40
2019-06-08T21:05:31.735Z,101529.77
2019-06-08T21:08:02.541Z,101518.27
2019-06-08T21:10:32.782Z,101524.34
2019-06-08T21:13:03.516Z,101526.95
2019-06-08T21:15:34.561Z,101531.70
2019-06-08T21:18:07.802Z,101525.69
2019-06-08T21:20:38.677Z,101530.10
2019-06-08T21:23:09.838Z,101533.27
2019-06-08T21:25:40.062Z,101537.74
2019-06-08T21:28:10.260Z,101543.62
2019-06-08T21:30:40.401Z,101542.53
2019-06-08T21:33:10.551Z,101541.92
2019-06-08T21:35:41.511Z,101541.44
2019-06-08T21:38:23.219Z,101542.45
2019-06-08T21:40:43.576Z,101545.45
2019-06-08T21:43:13.850Z,101550.17
2019-06-08T21:45:44.767Z,101552.82
2019-06-08T21:48:15.438Z,101552.70
2019-06-08T21:50:49.023Z,101560.14
2019-06-08T21:53:18.155Z,101552.31
2019-06-08T21:55:49.580Z,101556.69
2019-06-08T21:58:20.418Z,101561.64
2019-06-08T22:00:52.712Z,101566.05
2019-06-08T22:03:23.061Z,101560.45
2019-06-08T22:05:54.135Z,101566.64
2019-06-08T22:08:25.227Z,101569.40
2019-06-08T22:10:59.035Z,101567.97
2019-06-08T22:13:28.549Z,101569.36
2019-06-08T22:16:02.097Z,101564.38
2019-06-08T22:18:30.654Z,101564.38
2019-06-08T22:21:01.297Z,101573.52
2019-06-08T22:23:31.599Z,101573.59
2019-06-08T22:26:03.652Z,101570.56
2019-06-08T22:28:34.913Z,101568.70
2019-06-08T22:31:07.760Z,101578.59
2019-06-08T22:33:37.999Z,101579.99
2019-06-08T22:36:09.231Z,101562.33
2019-06-08T22:38:39.678Z,101578.82
2019-06-08T22:41:10.456Z,101579.97
2019-06-08T22:43:40.658Z,101585.28
2019-06-08T22:46:10.825Z,101585.31
2019-06-08T22:48:41.254Z,101581.30
2019-06-08T22:51:11.522Z,101580.19
2019-06-08T22:53:42.203Z,101588.07
2019-06-08T22:56:13.141Z,101590.05
2019-06-08T22:58:43.264Z,101591.81
2019-06-08T23:01:13.839Z,101588.31
2019-06-08T23:03:43.965Z,101578.61
2019-06-08T23:06:14.101Z,101581.00
2019-06-08T23:08:44.230Z,101581.86
2019-06-08T23:11:14.327Z,101583.30
2019-06-08T23:13:44.507Z,101582.63
2019-06-08T23:16:14.603Z,101576.59
2019-06-08T23:18:44.776Z,101587.61
2019-06-08T23:21:14.888Z,101586.98
2019-06-08T23:23:47.478Z,101585.39
2019-06-08T23:26:18.357Z,101589.91
2019-06-08T23:28:48.610Z,101590.50
2019-06-08T23:31:24.946Z,101585.61
2019-06-08T23:33:50.537Z,101589.42
2019-06-08T23:36:48.332Z,101590.92
2019-06-08T23:38:52.441Z,101600.56
2019-06-08T23:41:22.561Z,101595.79
2019-06-08T23:43:52.678Z,101596.47
2019-06-08T23:46:22.800Z,101597.02
2019-06-08T23:48:52.935Z,101592.78
2019-06-08T23:51:23.068Z,101597.44
2019-06-08T23:53:53.178Z,101596.16
2019-06-08T23:56:23.266Z,101602.32
2019-06-08T23:58:53.363Z,101603.80
